Time;durP1;ratioP1;P1;durP2;ratioP2;P2;SDS_P1;SDS_P2;PMS_P1;PMS_P2;Temp;Humidity;BMP_temperature;BMP_pressure;BME280_temperature;BME280_humidity;BME280_pressure;Samples;Min_cycle;Max_cycle;Signal;HPM_P1;HPM_P2
2023/03/08 00:00:11;;;;;;;6.80;3.17;;;0.80;99.90;;;;;;4886597;29;20211;-69
2023/03/08 00:02:37;;;;;;;7.97;4.00;;;0.80;99.90;;;;;;4886519;29;20456;-71
2023/03/08 00:05:04;;;;;;;11.57;3.60;;;0.80;99.90;;;;;;4885169;29;20527;-69
2023/03/08 00:07:29;;;;;;;8.20;3.33;;;0.80;99.90;;;;;;4883176;29;20469;-70
2023/03/08 00:09:55;;;;;;;5.20;2.73;;;0.80;99.90;;;;;;4869524;29;20491;-70
2023/03/08 00:12:21;;;;;;;5.50;3.20;;;0.80;99.90;;;;;;4864182;29;20192;-70
2023/03/08 00:14:48;;;;;;;6.20;3.10;;;0.80;99.90;;;;;;4863272;29;20220;-70
2023/03/08 00:17:14;;;;;;;4.93;2.20;;;0.80;99.90;;;;;;4863418;29;20425;-69
2023/03/08 00:19:40;;;;;;;8.47;2.97;;;0.80;99.90;;;;;;4863482;29;20883;-70
2023/03/08 00:22:06;;;;;;;3.50;2.60;;;0.80;99.90;;;;;;4863078;29;20469;-70
2023/03/08 00:24:31;;;;;;;3.27;1.77;;;0.80;99.90;;;;;;4863650;29;20437;-68
2023/03/08 00:26:57;;;;;;;3.20;2.10;;;0.80;99.90;;;;;;4875360;29;20757;-71
2023/03/08 00:29:23;;;;;;;4.63;1.83;;;0.80;99.90;;;;;;4882373;29;20207;-71
2023/03/08 00:31:49;;;;;;;3.07;1.97;;;0.80;99.90;;;;;;4884188;29;20186;-70
2023/03/08 00:34:15;;;;;;;7.70;2.30;;;0.90;99.90;;;;;;4865915;29;20523;-70
2023/03/08 00:36:41;;;;;;;4.00;2.17;;;0.90;99.90;;;;;;4876380;29;20195;-71
2023/03/08 00:39:07;;;;;;;7.73;2.20;;;0.90;99.90;;;;;;4885483;29;20456;-70
2023/03/08 00:41:33;;;;;;;7.07;3.33;;;0.90;99.90;;;;;;4885457;29;20823;-71
2023/03/08 00:43:59;;;;;;;4.63;2.30;;;0.90;99.90;;;;;;4869023;29;20456;-70
2023/03/08 00:46:26;;;;;;;4.13;3.00;;;0.90;99.90;;;;;;4865697;29;20437;-71
2023/03/08 00:48:52;;;;;;;8.23;2.50;;;0.90;99.90;;;;;;4883213;29;20451;-72
2023/03/08 00:51:19;;;;;;;3.23;2.20;;;0.90;99.90;;;;;;4882590;29;20200;-72
2023/03/08 00:53:46;;;;;;;4.40;2.50;;;0.90;99.90;;;;;;4882093;29;20449;-74
2023/03/08 00:56:12;;;;;;;4.20;2.30;;;0.90;99.90;;;;;;4881808;29;20717;-70
2023/03/08 00:58:38;;;;;;;5.77;2.50;;;0.90;99.90;;;;;;4875083;29;20453;-69
2023/03/08 01:01:05;;;;;;;3.97;2.20;;;0.90;99.90;;;;;;4874237;29;20475;-69
2023/03/08 01:03:30;;;;;;;8.53;2.10;;;0.90;99.90;;;;;;4880690;29;20521;-70
2023/03/08 01:05:57;;;;;;;4.57;2.00;;;0.90;99.90;;;;;;4881745;29;20464;-70
2023/03/08 01:08:24;;;;;;;6.50;2.83;;;0.90;99.90;;;;;;4880427;29;20472;-68
2023/03/08 01:10:56;;;;;;;3.93;2.13;;;0.80;99.90;;;;;;4882789;29;20480;-69
2023/03/08 01:13:23;;;;;;;9.00;2.93;;;0.80;99.90;;;;;;4880598;29;20428;-69
2023/03/08 01:15:48;;;;;;;5.77;2.23;;;0.80;99.90;;;;;;4872177;29;20741;-69
2023/03/08 01:18:14;;;;;;;6.90;2.87;;;0.80;99.90;;;;;;4864964;29;20512;-70
2023/03/08 01:20:40;;;;;;;6.60;2.00;;;0.80;99.90;;;;;;4866400;29;20228;-71
2023/03/08 01:23:05;;;;;;;5.90;2.30;;;0.90;99.90;;;;;;4866396;29;20554;-70
2023/03/08 01:25:31;;;;;;;7.97;2.80;;;0.90;99.90;;;;;;4866113;29;20246;-69
2023/03/08 01:27:57;;;;;;;8.20;3.53;;;0.90;99.90;;;;;;4866574;29;20185;-71
2023/03/08 01:30:22;;;;;;;8.63;3.47;;;0.90;99.90;;;;;;4873235;29;20571;-69
2023/03/08 01:32:48;;;;;;;6.90;4.10;;;0.90;99.90;;;;;;4884800;29;20964;-69
2023/03/08 01:35:14;;;;;;;5.70;2.80;;;0.90;99.90;;;;;;4884667;29;20212;-70
2023/03/08 01:37:39;;;;;;;5.30;2.40;;;0.90;99.90;;;;;;4872957;29;20197;-70
2023/03/08 01:40:06;;;;;;;4.33;2.13;;;0.90;99.90;;;;;;4867349;29;20188;-70
2023/03/08 01:42:32;;;;;;;4.53;2.37;;;0.90;99.90;;;;;;4865819;29;20217;-70
2023/03/08 01:45:03;;;;;;;4.20;2.20;;;0.90;99.90;;;;;;4872631;29;20455;-70
2023/03/08 01:47:34;;;;;;;5.30;2.43;;;0.90;99.90;;;;;;4884280;29;20421;-69
2023/03/08 01:50:29;;;;;;;4.00;2.47;;;0.90;99.90;;;;;;4867355;29;20457;-69
2023/03/08 01:52:57;;;;;;;4.70;2.23;;;0.90;99.90;;;;;;4867377;29;20697;-70
2023/03/08 01:55:23;;;;;;;5.57;2.73;;;0.90;99.90;;;;;;4865312;29;20234;-70
2023/03/08 01:57:53;;;;;;;5.60;2.20;;;0.90;99.90;;;;;;4865956;29;20425;-69
2023/03/08 02:00:25;;;;;;;5.97;2.20;;;0.90;99.90;;;;;;4846299;29;20242;-70
2023/03/08 02:02:53;;;;;;;5.30;2.23;;;1.00;99.90;;;;;;4847417;29;20465;-69
2023/03/08 02:05:20;;;;;;;5.93;2.60;;;1.00;99.90;;;;;;4846123;29;20444;-71
2023/03/08 02:07:49;;;;;;;2.80;1.60;;;0.90;99.90;;;;;;4860813;29;20409;-69
2023/03/08 02:10:16;;;;;;;4.17;2.80;;;0.90;99.90;;;;;;4867664;29;20472;-69
2023/03/08 02:12:44;;;;;;;9.17;2.60;;;0.90;99.90;;;;;;4884336;29;20196;-69
2023/03/08 02:15:12;;;;;;;5.30;2.63;;;0.90;99.90;;;;;;4878094;29;20525;-70
2023/03/08 02:17:40;;;;;;;5.30;2.20;;;0.90;99.90;;;;;;4864739;29;20421;-70
2023/03/08 02:20:23;;;;;;;4.70;2.23;;;0.90;99.90;;;;;;4866039;29;20524;-69
2023/03/08 02:22:52;;;;;;;5.87;2.47;;;0.90;99.90;;;;;;4879177;29;21043;-70
2023/03/08 02:25:26;;;;;;;6.03;2.30;;;0.90;99.90;;;;;;4864210;29;20540;-69
2023/03/08 02:27:53;;;;;;;3.63;2.10;;;0.90;99.90;;;;;;4864495;29;20417;-70
2023/03/08 02:30:24;;;;;;;5.50;2.60;;;0.90;99.90;;;;;;4870304;29;20844;-68
2023/03/08 02:32:50;;;;;;;5.87;2.77;;;0.90;99.90;;;;;;4883630;29;20464;-70
2023/03/08 02:35:16;;;;;;;5.03;2.63;;;0.80;99.90;;;;;;4882497;29;20483;-70
2023/03/08 02:37:41;;;;;;;7.50;2.90;;;0.80;99.90;;;;;;4871939;29;20214;-71
2023/03/08 02:40:08;;;;;;;7.13;2.90;;;0.80;99.90;;;;;;4863758;29;20528;-70
2023/03/08 02:42:33;;;;;;;8.50;3.80;;;0.80;99.90;;;;;;4865592;29;20571;-69
2023/03/08 02:44:59;;;;;;;10.47;4.27;;;0.80;99.90;;;;;;4863413;29;20469;-71
2023/03/08 02:47:24;;;;;;;4.43;3.40;;;0.80;99.90;;;;;;4879774;29;20223;-71
2023/03/08 02:49:50;;;;;;;7.00;2.73;;;0.80;99.90;;;;;;4865143;29;20184;-70
2023/03/08 02:52:16;;;;;;;5.10;3.20;;;0.80;99.90;;;;;;4865253;29;20481;-70
2023/03/08 02:54:42;;;;;;;7.57;3.10;;;0.80;99.90;;;;;;4863651;29;20670;-70
2023/03/08 02:57:07;;;;;;;7.60;2.97;;;0.80;99.90;;;;;;4879259;29;20850;-70
2023/03/08 02:59:35;;;;;;;9.90;4.03;;;0.80;99.90;;;;;;4878942;29;20189;-69
2023/03/08 03:02:01;;;;;;;11.87;3.87;;;0.80;99.90;;;;;;4866985;29;20471;-70
2023/03/08 03:04:32;;;;;;;8.00;2.67;;;0.70;99.90;;;;;;4883010;29;20700;-70
2023/03/08 03:06:58;;;;;;;5.23;3.37;;;0.70;99.90;;;;;;4882225;29;20192;-70
2023/03/08 03:09:24;;;;;;;7.03;3.17;;;0.80;99.90;;;;;;4881637;29;20694;-70
2023/03/08 03:11:50;;;;;;;11.67;4.10;;;0.80;99.90;;;;;;4881949;29;20432;-71
2023/03/08 03:14:15;;;;;;;7.30;3.37;;;0.80;99.90;;;;;;4872400;29;20514;-70
2023/03/08 03:16:42;;;;;;;7.03;2.97;;;0.80;99.90;;;;;;4878002;29;20196;-71
2023/03/08 03:19:10;;;;;;;14.90;5.00;;;0.80;99.90;;;;;;4882464;29;20709;-70
2023/03/08 03:21:37;;;;;;;7.40;4.00;;;0.80;99.90;;;;;;4867202;29;20529;-70
2023/03/08 03:24:03;;;;;;;7.83;3.10;;;0.80;99.90;;;;;;4865358;29;20185;-71
2023/03/08 03:26:40;;;;;;;5.80;2.67;;;0.80;99.90;;;;;;4879354;29;20519;-70
2023/03/08 03:29:06;;;;;;;9.47;4.80;;;0.80;99.90;;;;;;4880525;29;20417;-71
2023/03/08 03:31:35;;;;;;;9.50;3.73;;;0.80;99.90;;;;;;4875708;29;20508;-70
2023/03/08 03:34:01;;;;;;;8.57;3.10;;;0.80;99.90;;;;;;4881487;29;20452;-70
2023/03/08 03:36:27;;;;;;;7.93;4.37;;;0.80;99.90;;;;;;4878922;29;20488;-71
2023/03/08 03:38:52;;;;;;;6.47;3.80;;;0.80;99.90;;;;;;4864323;29;20440;-70
2023/03/08 03:41:21;;;;;;;5.10;2.10;;;0.70;99.90;;;;;;4865529;29;20603;-69
2023/03/08 03:43:50;;;;;;;5.37;2.80;;;0.70;99.90;;;;;;4877832;29;20417;-71
2023/03/08 03:46:17;;;;;;;7.80;4.33;;;0.70;99.90;;;;;;4869028;29;20736;-72
2023/03/08 03:48:46;;;;;;;5.47;2.87;;;0.70;99.90;;;;;;4862735;29;20445;-70
2023/03/08 03:51:17;;;;;;;8.60;4.27;;;0.80;99.90;;;;;;4862235;29;20963;-70
2023/03/08 03:53:47;;;;;;;8.23;3.87;;;0.80;99.90;;;;;;4878667;29;20409;-69
2023/03/08 03:56:17;;;;;;;8.67;4.97;;;0.80;99.90;;;;;;4862038;29;20438;-71
2023/03/08 03:58:43;;;;;;;18.17;6.10;;;0.80;99.90;;;;;;4862851;29;20888;-71
2023/03/08 04:01:37;;;;;;;13.23;5.27;;;0.70;99.90;;;;;;4871893;29;20431;-70
2023/03/08 04:04:12;;;;;;;11.70;5.60;;;0.60;99.90;;;;;;4881043;29;20514;-71
2023/03/08 04:06:41;;;;;;;11.83;5.50;;;0.60;99.90;;;;;;4882312;29;20424;-71
2023/03/08 04:09:14;;;;;;;14.20;7.53;;;0.60;99.90;;;;;;4869517;29;20439;-71
2023/03/08 04:11:42;;;;;;;17.10;7.63;;;0.60;99.90;;;;;;4878173;29;20825;-70
2023/03/08 04:14:13;;;;;;;20.10;8.00;;;0.60;99.90;;;;;;4864697;29;20427;-70
2023/03/08 04:16:39;;;;;;;21.37;7.00;;;0.60;99.90;;;;;;4865608;29;20444;-69
2023/03/08 04:19:12;;;;;;;24.53;9.30;;;0.60;99.90;;;;;;4862861;29;20417;-72
2023/03/08 04:21:44;;;;;;;27.00;10.10;;;0.60;99.90;;;;;;4857032;29;20464;-70
2023/03/08 04:24:10;;;;;;;23.03;9.97;;;0.60;99.90;;;;;;4862510;29;20417;-71
2023/03/08 04:26:36;;;;;;;28.13;8.47;;;0.50;99.90;;;;;;4866821;29;20456;-71
2023/03/08 04:29:04;;;;;;;20.17;8.00;;;0.50;99.90;;;;;;4881336;29;20673;-71
2023/03/08 04:31:33;;;;;;;16.23;6.10;;;0.50;99.90;;;;;;4877546;29;20721;-71
2023/03/08 04:34:01;;;;;;;20.47;7.23;;;0.50;99.90;;;;;;4880045;29;20428;-69
2023/03/08 04:36:27;;;;;;;14.77;5.87;;;0.50;99.90;;;;;;4878072;29;20781;-70
2023/03/08 04:38:56;;;;;;;11.40;5.47;;;0.50;99.90;;;;;;4862048;29;20445;-70
2023/03/08 04:41:22;;;;;;;13.13;5.20;;;0.40;99.90;;;;;;4877413;29;20494;-70
2023/03/08 04:44:14;;;;;;;16.97;5.17;;;0.50;99.90;;;;;;4863937;29;20759;-70
2023/03/08 04:46:45;;;;;;;20.83;9.17;;;0.40;99.90;;;;;;4881212;29;20413;-71
2023/03/08 04:49:17;;;;;;;25.90;8.67;;;0.40;99.90;;;;;;4882683;29;20420;-69
2023/03/08 04:51:47;;;;;;;23.57;6.53;;;0.40;99.90;;;;;;4884751;29;20420;-70
2023/03/08 04:54:12;;;;;;;17.00;6.20;;;0.40;99.90;;;;;;4884994;29;20579;-68
2023/03/08 04:56:44;;;;;;;15.03;7.03;;;0.40;99.90;;;;;;4885689;29;20176;-70
2023/03/08 04:59:11;;;;;;;22.03;7.40;;;0.40;99.90;;;;;;4882583;29;20557;-70
2023/03/08 05:01:36;;;;;;;20.83;7.50;;;0.40;99.90;;;;;;4873877;29;20540;-71
2023/03/08 05:04:02;;;;;;;17.30;6.03;;;0.40;99.90;;;;;;4886401;29;20204;-72
2023/03/08 05:06:34;;;;;;;20.97;7.00;;;0.40;99.90;;;;;;4887170;29;20512;-71
2023/03/08 05:08:59;;;;;;;8.93;4.50;;;0.40;99.90;;;;;;4886351;29;20427;-70
2023/03/08 05:11:27;;;;;;;17.07;6.90;;;0.40;99.90;;;;;;4883139;29;20224;-71
2023/03/08 05:13:55;;;;;;;19.40;7.10;;;0.40;99.90;;;;;;4856072;29;20275;-73
2023/03/08 05:16:22;;;;;;;21.40;6.60;;;0.40;99.90;;;;;;4883374;29;20521;-72
2023/03/08 05:18:48;;;;;;;21.73;7.40;;;0.30;99.90;;;;;;4862180;29;20436;-72
2023/03/08 05:21:18;;;;;;;21.00;7.33;;;0.30;99.90;;;;;;4853668;29;20891;-73
2023/03/08 05:23:46;;;;;;;21.27;8.20;;;0.30;99.90;;;;;;4855150;29;20493;-75
2023/03/08 05:26:16;;;;;;;23.33;7.50;;;0.30;99.90;;;;;;4870636;29;20457;-75
2023/03/08 05:28:42;;;;;;;16.53;6.37;;;0.30;99.90;;;;;;4868630;29;20432;-72
2023/03/08 05:31:17;;;;;;;31.57;11.80;;;0.30;99.90;;;;;;4869605;29;20866;-73
2023/03/08 05:33:45;;;;;;;28.07;9.57;;;0.30;99.90;;;;;;4871558;29;20440;-73
2023/03/08 05:36:13;;;;;;;27.87;11.70;;;0.30;99.90;;;;;;4872404;29;20471;-75
2023/03/08 05:38:41;;;;;;;28.23;10.77;;;0.30;99.90;;;;;;4886663;29;20435;-73
2023/03/08 05:41:12;;;;;;;24.70;9.83;;;0.30;99.90;;;;;;4870806;29;20710;-75
2023/03/08 05:43:39;;;;;;;28.10;11.80;;;0.30;99.90;;;;;;4884763;29;20453;-74
2023/03/08 05:46:10;;;;;;;35.33;10.07;;;0.30;99.90;;;;;;4872712;29;20469;-74
2023/03/08 05:48:37;;;;;;;23.37;8.40;;;0.30;99.90;;;;;;4855881;29;20418;-77
2023/03/08 05:51:05;;;;;;;17.20;6.50;;;0.30;99.90;;;;;;4840067;29;20788;-74
2023/03/08 05:53:30;;;;;;;12.83;5.00;;;0.30;99.90;;;;;;4839557;29;20486;-75
2023/03/08 05:55:56;;;;;;;25.20;10.50;;;0.30;99.90;;;;;;4856530;29;20495;-75
2023/03/08 05:58:22;;;;;;;29.47;10.90;;;0.30;99.90;;;;;;4852643;29;20191;-73
2023/03/08 06:00:48;;;;;;;20.23;9.00;;;0.30;99.90;;;;;;4873920;29;20417;-75
2023/03/08 06:03:14;;;;;;;15.80;7.27;;;0.30;99.90;;;;;;4873877;29;20214;-76
2023/03/08 06:05:46;;;;;;;15.30;6.50;;;0.40;99.90;;;;;;4874544;29;20460;-78
2023/03/08 06:08:19;;;;;;;17.47;6.90;;;0.30;99.90;;;;;;4896012;29;20428;-74
2023/03/08 06:10:45;;;;;;;17.90;7.70;;;0.40;99.90;;;;;;4863386;29;20465;-75
2023/03/08 06:13:11;;;;;;;23.03;8.63;;;0.30;99.90;;;;;;4874174;29;20431;-72
2023/03/08 06:15:37;;;;;;;43.67;11.97;;;0.30;99.90;;;;;;4874961;29;20234;-76
2023/03/08 06:18:04;;;;;;;23.60;10.03;;;0.30;99.90;;;;;;4862323;29;20488;-74
2023/03/08 06:20:30;;;;;;;47.83;12.00;;;0.30;99.90;;;;;;4860545;29;20417;-78
2023/03/08 06:22:55;;;;;;;38.73;13.33;;;0.40;99.90;;;;;;4861859;29;20461;-78
2023/03/08 06:25:21;;;;;;;30.07;9.57;;;0.30;99.90;;;;;;4878575;29;20268;-77
2023/03/08 06:27:48;;;;;;;43.63;12.87;;;0.30;99.90;;;;;;4877020;29;20316;-78
2023/03/08 06:30:40;;;;;;;29.90;9.30;;;0.30;99.90;;;;;;4841905;29;20430;-77
2023/03/08 06:33:05;;;;;;;33.87;11.07;;;0.30;99.90;;;;;;4857990;29;20454;-77
2023/03/08 06:35:32;;;;;;;37.23;11.80;;;0.40;99.90;;;;;;4892365;29;20497;-77
2023/03/08 06:38:00;;;;;;;37.03;10.47;;;0.30;99.90;;;;;;4862872;29;20484;-79
2023/03/08 06:40:26;;;;;;;24.03;7.20;;;0.30;99.90;;;;;;4863409;29;20497;-77
2023/03/08 06:42:52;;;;;;;18.73;6.57;;;0.30;99.90;;;;;;4845981;29;20216;-76
2023/03/08 06:45:17;;;;;;;27.53;7.43;;;0.30;99.90;;;;;;4877484;29;20230;-78
2023/03/08 06:47:44;;;;;;;34.20;10.10;;;0.30;99.90;;;;;;4864761;29;20176;-75
2023/03/08 06:50:11;;;;;;;30.97;9.40;;;0.30;99.90;;;;;;4863477;29;20425;-77
2023/03/08 06:52:39;;;;;;;35.17;9.90;;;0.30;99.90;;;;;;4860580;29;20487;-76
2023/03/08 06:55:07;;;;;;;29.93;8.63;;;0.30;99.90;;;;;;4861018;29;20449;-77
2023/03/08 06:57:33;;;;;;;46.27;13.97;;;0.30;99.90;;;;;;4862481;29;20453;-78
2023/03/08 06:59:58;;;;;;;29.43;9.23;;;0.30;99.90;;;;;;4862363;29;20436;-75
2023/03/08 07:02:24;;;;;;;23.37;8.60;;;0.30;99.90;;;;;;4863951;29;20499;-78
2023/03/08 07:04:52;;;;;;;24.13;8.23;;;0.40;99.90;;;;;;4862602;29;20600;-76
2023/03/08 07:07:17;;;;;;;27.60;8.67;;;0.40;99.90;;;;;;4862651;29;20454;-77
2023/03/08 07:09:44;;;;;;;36.47;9.77;;;0.40;99.90;;;;;;4879848;29;20223;-76
2023/03/08 07:12:10;;;;;;;18.40;5.73;;;0.40;99.90;;;;;;4863174;29;20437;-80
2023/03/08 07:14:38;;;;;;;24.07;8.33;;;0.40;99.90;;;;;;4860481;29;20468;-77
2023/03/08 07:17:04;;;;;;;21.07;6.33;;;0.40;99.90;;;;;;4856491;29;20443;-79
2023/03/08 07:19:31;;;;;;;15.50;5.00;;;0.50;99.90;;;;;;4881740;29;20425;-78
2023/03/08 07:21:57;;;;;;;9.17;4.70;;;0.50;99.90;;;;;;4880843;29;20469;-78
2023/03/08 07:24:23;;;;;;;19.97;5.63;;;0.50;99.90;;;;;;4848029;29;20447;-78
2023/03/08 07:26:52;;;;;;;18.93;6.07;;;0.50;99.90;;;;;;4861450;29;20437;-79
2023/03/08 07:29:18;;;;;;;15.77;6.77;;;0.60;99.90;;;;;;4859254;29;20414;-76
2023/03/08 07:31:43;;;;;;;12.13;4.67;;;0.60;99.90;;;;;;4859361;29;20483;-76
2023/03/08 07:34:09;;;;;;;12.60;5.30;;;0.60;99.90;;;;;;4847747;29;20418;-79
2023/03/08 07:36:35;;;;;;;14.43;4.90;;;0.70;99.90;;;;;;4845615;29;20215;-77
2023/03/08 07:39:03;;;;;;;15.23;5.57;;;0.70;99.90;;;;;;4875934;29;20905;-77
2023/03/08 07:41:30;;;;;;;13.90;4.80;;;0.70;99.90;;;;;;4847753;29;20481;-80
2023/03/08 07:43:56;;;;;;;12.93;5.37;;;0.70;99.90;;;;;;4877106;29;20440;-77
2023/03/08 07:46:24;;;;;;;16.60;7.40;;;0.80;99.90;;;;;;4852757;29;20462;-78
2023/03/08 07:48:51;;;;;;;12.57;6.03;;;0.80;99.90;;;;;;4863101;29;20440;-77
2023/03/08 07:51:17;;;;;;;22.10;8.87;;;0.80;99.90;;;;;;4872149;29;20426;-77
2023/03/08 07:53:42;;;;;;;14.03;6.13;;;0.80;99.90;;;;;;4870866;29;20442;-79
2023/03/08 07:56:11;;;;;;;22.67;8.70;;;0.80;99.90;;;;;;4873906;29;20594;-78
2023/03/08 07:58:38;;;;;;;16.80;7.97;;;0.90;99.90;;;;;;4860170;29;20226;-76
2023/03/08 08:01:11;;;;;;;22.47;8.73;;;0.90;99.90;;;;;;4874809;29;20421;-78
2023/03/08 08:03:38;;;;;;;22.07;8.63;;;0.90;99.90;;;;;;4866001;29;20479;-77
2023/03/08 08:06:05;;;;;;;23.73;9.17;;;0.90;99.90;;;;;;4879512;29;20424;-76
2023/03/08 08:08:31;;;;;;;29.57;10.43;;;0.90;99.90;;;;;;4863865;29;21038;-75
2023/03/08 08:10:57;;;;;;;22.63;9.63;;;1.00;99.90;;;;;;4877636;29;20480;-77
2023/03/08 08:13:23;;;;;;;22.30;9.20;;;1.00;99.90;;;;;;4891782;29;20448;-78
2023/03/08 08:15:59;;;;;;;25.27;10.07;;;0.90;99.90;;;;;;4872713;29;20457;-75
2023/03/08 08:18:25;;;;;;;21.77;8.40;;;1.00;99.90;;;;;;4858070;29;20189;-77
2023/03/08 08:21:05;;;;;;;20.80;8.03;;;0.90;99.90;;;;;;4859330;29;20426;-76
2023/03/08 08:23:32;;;;;;;23.43;9.97;;;0.90;99.90;;;;;;4860775;29;20457;-78
2023/03/08 08:25:58;;;;;;;14.70;6.30;;;0.90;99.90;;;;;;4867855;29;20484;-76
2023/03/08 08:28:25;;;;;;;20.90;8.63;;;1.00;99.90;;;;;;4870466;29;20436;-76
2023/03/08 08:31:07;;;;;;;20.27;9.97;;;1.00;99.90;;;;;;4898589;29;20776;-77
2023/03/08 08:33:34;;;;;;;30.30;14.37;;;1.10;99.90;;;;;;4871778;29;20489;-77
2023/03/08 08:36:07;;;;;;;20.90;9.10;;;1.10;99.90;;;;;;4880984;29;20445;-77
2023/03/08 08:38:33;;;;;;;15.07;6.90;;;1.20;99.90;;;;;;4880921;29;20432;-77
2023/03/08 08:41:01;;;;;;;16.43;7.80;;;1.30;99.90;;;;;;4897350;29;20401;-75
2023/03/08 08:43:27;;;;;;;16.30;7.83;;;1.40;99.90;;;;;;4882440;29;20476;-75
2023/03/08 08:45:55;;;;;;;16.67;8.00;;;1.40;99.90;;;;;;4880870;29;20434;-79
2023/03/08 08:48:21;;;;;;;25.30;10.13;;;1.50;99.90;;;;;;4882320;29;20429;-76
2023/03/08 08:50:47;;;;;;;19.53;8.30;;;1.60;99.90;;;;;;4882080;29;20410;-77
2023/03/08 08:53:28;;;;;;;23.87;8.70;;;1.70;99.90;;;;;;4882713;29;20436;-79
2023/03/08 08:55:55;;;;;;;19.20;8.73;;;1.80;99.90;;;;;;4881415;29;20213;-77
2023/03/08 08:58:24;;;;;;;29.20;13.83;;;1.90;99.90;;;;;;4899727;29;20406;-79
2023/03/08 09:00:53;;;;;;;19.93;8.53;;;2.00;99.90;;;;;;4882023;29;20438;-76
2023/03/08 09:03:19;;;;;;;19.80;11.60;;;2.00;99.90;;;;;;4883636;29;20449;-76
2023/03/08 09:05:46;;;;;;;11.83;7.00;;;2.10;99.90;;;;;;4883937;29;20223;-77
2023/03/08 09:08:12;;;;;;;13.60;7.80;;;2.20;99.90;;;;;;4884134;29;20496;-77
2023/03/08 09:10:40;;;;;;;15.37;7.70;;;2.20;99.90;;;;;;4883189;29;20477;-75
2023/03/08 09:13:07;;;;;;;11.50;7.90;;;2.20;99.90;;;;;;4885377;29;20710;-76
2023/03/08 09:15:35;;;;;;;21.57;10.20;;;2.20;99.90;;;;;;4884778;29;20478;-79
2023/03/08 09:18:02;;;;;;;17.83;10.17;;;2.30;99.90;;;;;;4899996;29;20496;-80
2023/03/08 09:20:28;;;;;;;13.43;8.70;;;2.20;99.90;;;;;;4884965;29;20472;-79
2023/03/08 09:22:55;;;;;;;13.00;7.83;;;2.20;99.90;;;;;;4899435;29;20477;-80
2023/03/08 09:25:23;;;;;;;15.40;9.43;;;2.30;99.90;;;;;;4883252;29;20452;-78
2023/03/08 09:27:50;;;;;;;17.60;10.27;;;2.20;99.90;;;;;;4867249;29;20425;-77
2023/03/08 09:30:16;;;;;;;18.13;10.57;;;2.20;99.90;;;;;;4867386;29;20458;-77
2023/03/08 09:32:42;;;;;;;14.77;8.67;;;2.20;99.90;;;;;;4899427;29;20501;-78
2023/03/08 09:35:09;;;;;;;10.43;6.77;;;2.30;99.90;;;;;;4867547;29;20471;-80
2023/03/08 09:37:38;;;;;;;18.60;10.70;;;2.30;99.90;;;;;;4869445;29;20453;-79
2023/03/08 09:40:10;;;;;;;18.53;12.47;;;2.20;99.90;;;;;;4868573;29;20441;-80
2023/03/08 09:42:54;;;;;;;16.60;9.00;;;2.20;99.90;;;;;;4869524;29;20441;-80
2023/03/08 09:45:28;;;;;;;11.77;7.73;;;2.30;99.90;;;;;;4869311;29;20457;-79
2023/03/08 09:48:05;;;;;;;10.57;8.20;;;2.40;99.90;;;;;;4867284;29;20425;-79
2023/03/08 09:50:52;;;;;;;14.33;8.63;;;2.60;99.90;;;;;;4882823;29;20453;-80
2023/03/08 09:53:58;;;;;;;14.37;6.13;;;2.70;99.90;;;;;;4853352;29;20484;-79
2023/03/08 09:56:32;;;;;;;12.83;8.60;;;2.70;99.90;;;;;;4824648;29;20571;-78
2023/03/08 09:59:11;;;;;;;15.43;10.67;;;2.60;99.90;;;;;;4810277;29;20439;-80
2023/03/08 10:01:48;;;;;;;12.40;9.80;;;2.50;99.90;;;;;;4793083;30;20416;-78
2023/03/08 10:04:28;;;;;;;15.60;10.10;;;2.40;99.90;;;;;;4803661;29;20414;-77
2023/03/08 10:07:49;;;;;;;16.57;9.10;;;2.30;99.90;;;;;;4789286;30;20414;-78
2023/03/08 10:10:53;;;;;;;14.53;9.30;;;2.20;99.90;;;;;;4713004;30;20484;-78
2023/03/08 10:16:33;;;;;;;23.10;13.13;;;2.10;99.90;;;;;;4863337;29;20485;-79
2023/03/08 10:19:18;;;;;;;18.73;9.90;;;2.10;99.90;;;;;;4866296;29;20441;-79
2023/03/08 10:21:45;;;;;;;14.70;9.07;;;2.10;99.90;;;;;;4850066;29;20430;-79
2023/03/08 10:24:26;;;;;;;16.00;9.10;;;2.10;99.90;;;;;;4863719;29;20436;-77
2023/03/08 10:27:00;;;;;;;18.27;10.73;;;2.20;99.90;;;;;;4863568;29;20422;-77
2023/03/08 10:32:29;;;;;;;28.70;13.90;;;2.50;99.90;;;;;;4882405;29;20444;-78
2023/03/08 10:35:04;;;;;;;23.63;13.33;;;2.70;99.90;;;;;;4867493;29;20429;-79
2023/03/08 10:37:33;;;;;;;15.60;10.67;;;2.80;99.90;;;;;;4867408;29;20455;-78
2023/03/08 10:40:07;;;;;;;15.30;9.93;;;2.80;99.90;;;;;;4867121;29;20473;-80
2023/03/08 10:42:37;;;;;;;23.13;12.67;;;2.90;99.90;;;;;;4882845;29;20449;-78
2023/03/08 10:45:24;;;;;;;23.13;12.83;;;2.90;99.90;;;;;;4869309;29;20446;-80
2023/03/08 10:47:58;;;;;;;13.30;9.83;;;2.90;99.90;;;;;;4881243;29;20461;-78
2023/03/08 10:50:31;;;;;;;17.60;9.60;;;2.90;99.90;;;;;;4866786;29;20443;-81
2023/03/08 10:53:13;;;;;;;15.07;10.33;;;2.90;99.90;;;;;;4881333;29;20429;-79
2023/03/08 10:55:48;;;;;;;16.70;11.20;;;3.10;99.90;;;;;;4881441;29;20426;-77
2023/03/08 10:58:30;;;;;;;15.67;10.73;;;3.00;99.90;;;;;;4882095;29;20404;-78
2023/03/08 11:01:03;;;;;;;16.03;10.60;;;3.10;99.90;;;;;;4866560;29;20443;-77
2023/03/08 11:03:30;;;;;;;27.30;14.90;;;3.10;99.90;;;;;;4866880;29;20468;-78
2023/03/08 11:06:11;;;;;;;21.10;13.10;;;3.10;99.90;;;;;;4881463;29;20441;-80
2023/03/08 11:08:41;;;;;;;15.70;11.17;;;3.10;99.90;;;;;;4851578;29;20508;-79
2023/03/08 11:11:13;;;;;;;19.17;12.43;;;3.00;99.90;;;;;;4868285;29;20425;-78
2023/03/08 11:13:45;;;;;;;18.27;11.70;;;3.10;99.90;;;;;;4883481;29;20413;-78
2023/03/08 11:16:34;;;;;;;16.00;10.73;;;3.10;99.90;;;;;;5070159;23;20492;-79
2023/03/08 11:19:32;;;;;;;18.63;11.10;;;3.20;99.90;;;;;;4885112;29;20481;-79
2023/03/08 11:22:36;;;;;;;12.73;9.97;;;3.30;99.90;;;;;;4884770;29;20468;-76
2023/03/08 11:25:13;;;;;;;12.23;8.90;;;3.50;99.90;;;;;;4901249;29;20424;-80
2023/03/08 11:27:58;;;;;;;13.10;9.40;;;3.70;99.90;;;;;;4881632;29;20468;-77
2023/03/08 11:30:37;;;;;;;11.37;8.10;;;3.90;99.90;;;;;;4882353;29;20438;-77
2023/03/08 11:33:33;;;;;;;21.20;13.50;;;4.10;99.90;;;;;;4867792;29;20548;-80
2023/03/08 11:36:57;;;;;;;21.13;12.83;;;4.10;99.90;;;;;;4900937;29;20468;-79
2023/03/08 11:39:33;;;;;;;17.23;13.40;;;4.00;99.90;;;;;;4886467;29;20451;-80
2023/03/08 11:42:22;;;;;;;12.70;9.87;;;4.00;99.90;;;;;;4870608;29;20456;-80
2023/03/08 11:45:38;;;;;;;16.60;11.90;;;4.00;99.90;;;;;;4870789;29;20449;-80
2023/03/08 11:48:19;;;;;;;15.90;12.17;;;3.90;99.90;;;;;;4852079;29;20505;-79
2023/03/08 11:50:59;;;;;;;14.57;9.57;;;3.90;99.90;;;;;;4867797;29;20441;-78
2023/03/08 12:00:24;;;;;;;11.13;8.63;;;4.10;99.90;;;;;;5366388;23;20502;-79
2023/03/08 12:03:31;;;;;;;11.37;8.87;;;4.20;99.90;;;;;;4940868;29;20458;-81
2023/03/08 12:06:35;;;;;;;14.60;11.67;;;4.40;99.90;;;;;;4956621;29;20440;-80
2023/03/08 12:21:37;;;;;;;14.80;12.53;;;4.30;99.90;;;;;;5208660;23;20516;-80
2023/03/08 13:08:22;;;;;;;17.77;13.33;;;4.80;99.90;;;;;;3876583;23;20595;-79
2023/03/08 13:11:15;;;;;;;17.87;13.20;;;4.80;99.90;;;;;;4919613;29;20403;-78
2023/03/08 13:14:00;;;;;;;17.20;13.57;;;4.70;99.90;;;;;;4870104;29;20445;-78
2023/03/08 13:16:53;;;;;;;12.53;10.33;;;4.70;99.90;;;;;;4870244;29;20461;-77
2023/03/08 13:44:15;;;;;;;22.57;16.10;;;4.80;99.90;;;;;;5120468;23;20490;-80
2023/03/08 13:47:03;;;;;;;19.40;14.80;;;5.00;99.90;;;;;;4919881;29;20447;-80
2023/03/08 14:08:31;;;;;;;21.40;16.10;;;4.80;99.90;;;;;;4117975;23;22062;-80
2023/03/08 14:11:02;;;;;;;20.70;16.03;;;4.70;99.90;;;;;;4907220;29;20400;-79
2023/03/08 14:13:37;;;;;;;22.70;16.77;;;4.60;99.90;;;;;;4908319;29;20420;-79
2023/03/08 14:47:57;;;;;;;22.57;15.27;;;4.40;99.90;;;;;;5465431;23;20470;-80
2023/03/08 14:50:37;;;;;;;24.77;15.63;;;4.40;99.90;;;;;;4905943;29;20468;-78
2023/03/08 14:54:07;;;;;;;20.07;15.23;;;4.50;99.90;;;;;;4893740;29;20416;-81
2023/03/08 15:00:24;;;;;;;17.40;13.00;;;4.30;99.90;;;;;;5494579;23;20517;-79
2023/03/08 15:02:56;;;;;;;15.80;11.93;;;4.30;99.90;;;;;;5273011;23;20471;-81
2023/03/08 15:08:58;;;;;;;16.63;11.20;;;4.30;99.90;;;;;;5748996;23;20492;-77
2023/03/08 15:11:43;;;;;;;21.97;15.17;;;4.20;99.90;;;;;;4895374;29;20399;-81
2023/03/08 15:14:13;;;;;;;24.27;16.00;;;4.20;99.90;;;;;;4922288;29;20431;-80
2023/03/08 15:17:08;;;;;;;20.13;13.93;;;4.20;99.90;;;;;;4947999;23;20480;-78
2023/03/08 15:19:46;;;;;;;17.40;13.50;;;4.00;99.90;;;;;;4906196;29;20428;-78
2023/03/08 15:22:24;;;;;;;20.40;14.23;;;4.10;99.90;;;;;;4882829;29;20479;-78
2023/03/08 15:24:51;;;;;;;18.20;13.37;;;4.20;99.90;;;;;;4804876;29;20505;-80
2023/03/08 15:27:21;;;;;;;18.67;13.27;;;4.20;99.90;;;;;;4849736;29;20464;-80
2023/03/08 15:29:47;;;;;;;22.37;14.10;;;4.20;99.90;;;;;;4819835;29;20199;-78
2023/03/08 15:32:15;;;;;;;18.67;13.23;;;4.20;99.90;;;;;;4798378;29;20451;-80
2023/03/08 15:34:41;;;;;;;14.70;9.77;;;4.20;99.90;;;;;;4798874;29;20195;-79
2023/03/08 15:37:27;;;;;;;16.70;11.57;;;4.10;99.90;;;;;;5013802;24;20542;-79
2023/03/08 19:35:45;;;;;;;32.77;14.70;;;3.90;99.90;;;;;;5566461;23;20496;-79